sensor_id;sensor_type;location;lat;lon;timestamp;pressure;altitude;pressure_sealevel;temperature;humidity
4085;BME280;2057;50.858;6.572;2023-04-27T00:00:27;100698.31;;;8.65;75.44
4085;BME280;2057;50.858;6.572;2023-04-27T00:02:53;100694.31;;;8.69;75.22
4085;BME280;2057;50.858;6.572;2023-04-27T00:05:18;100700.69;;;8.62;75.23
4085;BME280;2057;50.858;6.572;2023-04-27T00:07:44;100703.16;;;8.47;76.48
4085;BME280;2057;50.858;6.572;2023-04-27T00:10:12;100696.47;;;8.62;77.47
4085;BME280;2057;50.858;6.572;2023-04-27T00:12:38;100699.59;;;8.58;77.78
4085;BME280;2057;50.858;6.572;2023-04-27T00:15:06;100700.69;;;8.62;77.21
4085;BME280;2057;50.858;6.572;2023-04-27T00:17:32;100702.41;;;8.63;77.47
4085;BME280;2057;50.858;6.572;2023-04-27T00:19:57;100710.09;;;8.65;77.06
4085;BME280;2057;50.858;6.572;2023-04-27T00:22:22;100704.75;;;8.60;76.28
4085;BME280;2057;50.858;6.572;2023-04-27T00:24:48;100711.94;;;8.67;76.21
4085;BME280;2057;50.858;6.572;2023-04-27T00:27:13;100711.38;;;8.58;75.33
4085;BME280;2057;50.858;6.572;2023-04-27T00:29:39;100711.03;;;8.52;76.04
4085;BME280;2057;50.858;6.572;2023-04-27T00:32:10;100702.66;;;8.53;76.61
4085;BME280;2057;50.858;6.572;2023-04-27T00:34:36;100710.75;;;8.47;76.42
4085;BME280;2057;50.858;6.572;2023-04-27T00:37:02;100706.72;;;8.37;75.33
4085;BME280;2057;50.858;6.572;2023-04-27T00:39:28;100704.72;;;8.31;75.81
4085;BME280;2057;50.858;6.572;2023-04-27T00:41:53;100704.50;;;8.28;75.24
4085;BME280;2057;50.858;6.572;2023-04-27T00:44:23;100697.63;;;8.26;75.99
4085;BME280;2057;50.858;6.572;2023-04-27T00:46:49;100705.78;;;8.35;76.23
4085;BME280;2057;50.858;6.572;2023-04-27T00:49:15;100706.34;;;8.31;75.80
4085;BME280;2057;50.858;6.572;2023-04-27T00:51:40;100701.91;;;8.27;76.11
4085;BME280;2057;50.858;6.572;2023-04-27T00:54:06;100690.31;;;8.30;75.75
4085;BME280;2057;50.858;6.572;2023-04-27T00:56:31;100693.13;;;8.35;76.49
4085;BME280;2057;50.858;6.572;2023-04-27T00:58:57;100698.75;;;8.31;76.23
4085;BME280;2057;50.858;6.572;2023-04-27T01:01:25;100700.44;;;8.30;76.78
4085;BME280;2057;50.858;6.572;2023-04-27T01:03:53;100707.53;;;8.23;76.03
4085;BME280;2057;50.858;6.572;2023-04-27T01:06:18;100697.81;;;8.15;75.75
4085;BME280;2057;50.858;6.572;2023-04-27T01:08:43;100698.31;;;8.10;76.59
4085;BME280;2057;50.858;6.572;2023-04-27T01:11:10;100704.53;;;8.01;76.51
4085;BME280;2057;50.858;6.572;2023-04-27T01:13:35;100707.94;;;8.02;77.01
4085;BME280;2057;50.858;6.572;2023-04-27T01:16:01;100708.91;;;8.04;76.92
4085;BME280;2057;50.858;6.572;2023-04-27T01:18:26;100713.59;;;7.98;76.71
4085;BME280;2057;50.858;6.572;2023-04-27T01:20:54;100711.63;;;7.94;77.09
4085;BME280;2057;50.858;6.572;2023-04-27T01:23:20;100713.38;;;7.95;76.75
4085;BME280;2057;50.858;6.572;2023-04-27T01:25:45;100706.41;;;7.91;77.08
4085;BME280;2057;50.858;6.572;2023-04-27T01:28:10;100702.03;;;7.88;78.12
4085;BME280;2057;50.858;6.572;2023-04-27T01:30:36;100700.75;;;7.81;77.66
4085;BME280;2057;50.858;6.572;2023-04-27T01:33:02;100696.88;;;7.73;77.78
4085;BME280;2057;50.858;6.572;2023-04-27T01:35:27;100697.25;;;7.79;78.09
4085;BME280;2057;50.858;6.572;2023-04-27T01:37:53;100699.38;;;7.87;78.46
4085;BME280;2057;50.858;6.572;2023-04-27T01:40:18;100704.84;;;7.79;78.57
4085;BME280;2057;50.858;6.572;2023-04-27T01:42:43;100709.69;;;7.76;79.17
4085;BME280;2057;50.858;6.572;2023-04-27T01:45:10;100716.31;;;7.74;79.58
4085;BME280;2057;50.858;6.572;2023-04-27T01:47:35;100717.84;;;7.59;79.40
4085;BME280;2057;50.858;6.572;2023-04-27T01:50:01;100706.19;;;7.47;79.53
4085;BME280;2057;50.858;6.572;2023-04-27T01:52:26;100703.81;;;7.37;78.51
4085;BME280;2057;50.858;6.572;2023-04-27T01:54:52;100707.72;;;7.32;79.85
4085;BME280;2057;50.858;6.572;2023-04-27T01:57:17;100703.53;;;7.32;80.36
4085;BME280;2057;50.858;6.572;2023-04-27T01:59:43;100706.81;;;7.31;80.52
4085;BME280;2057;50.858;6.572;2023-04-27T02:02:09;100706.81;;;7.31;80.61
4085;BME280;2057;50.858;6.572;2023-04-27T02:04:34;100704.00;;;7.27;79.62
4085;BME280;2057;50.858;6.572;2023-04-27T02:07:00;100707.88;;;7.21;80.44
4085;BME280;2057;50.858;6.572;2023-04-27T02:09:26;100701.84;;;7.19;80.77
4085;BME280;2057;50.858;6.572;2023-04-27T02:11:51;100712.94;;;7.21;80.38
4085;BME280;2057;50.858;6.572;2023-04-27T02:14:16;100704.91;;;7.15;80.22
4085;BME280;2057;50.858;6.572;2023-04-27T02:16:42;100707.25;;;7.12;81.43
4085;BME280;2057;50.858;6.572;2023-04-27T02:19:09;100712.00;;;7.07;81.06
4085;BME280;2057;50.858;6.572;2023-04-27T02:21:35;100716.66;;;7.01;81.63
4085;BME280;2057;50.858;6.572;2023-04-27T02:24:00;100712.47;;;7.02;81.56
4085;BME280;2057;50.858;6.572;2023-04-27T02:26:26;100710.63;;;6.99;81.03
4085;BME280;2057;50.858;6.572;2023-04-27T02:28:54;100713.69;;;6.95;81.66
4085;BME280;2057;50.858;6.572;2023-04-27T02:31:20;100712.53;;;6.90;81.64
4085;BME280;2057;50.858;6.572;2023-04-27T02:33:48;100717.56;;;6.90;81.65
4085;BME280;2057;50.858;6.572;2023-04-27T02:36:13;100714.44;;;6.81;81.33
4085;BME280;2057;50.858;6.572;2023-04-27T02:38:39;100716.28;;;6.83;81.49
4085;BME280;2057;50.858;6.572;2023-04-27T02:41:07;100706.22;;;6.71;81.55
4085;BME280;2057;50.858;6.572;2023-04-27T02:43:32;100698.75;;;6.73;81.84
4085;BME280;2057;50.858;6.572;2023-04-27T02:46:02;100702.72;;;6.69;81.73
4085;BME280;2057;50.858;6.572;2023-04-27T02:48:27;100695.06;;;6.68;82.36
4085;BME280;2057;50.858;6.572;2023-04-27T02:50:52;100707.03;;;6.58;82.25
4085;BME280;2057;50.858;6.572;2023-04-27T02:53:18;100704.28;;;6.55;82.12
4085;BME280;2057;50.858;6.572;2023-04-27T02:55:49;100697.41;;;6.53;82.45
4085;BME280;2057;50.858;6.572;2023-04-27T02:58:15;100693.38;;;6.43;82.88
4085;BME280;2057;50.858;6.572;2023-04-27T03:00:44;100701.38;;;6.49;83.97
4085;BME280;2057;50.858;6.572;2023-04-27T03:03:10;100700.19;;;6.44;83.34
4085;BME280;2057;50.858;6.572;2023-04-27T03:05:35;100698.00;;;6.37;84.21
4085;BME280;2057;50.858;6.572;2023-04-27T03:08:01;100701.06;;;6.33;84.21
4085;BME280;2057;50.858;6.572;2023-04-27T03:10:26;100696.25;;;6.36;84.33
4085;BME280;2057;50.858;6.572;2023-04-27T03:12:52;100703.69;;;6.34;84.68
4085;BME280;2057;50.858;6.572;2023-04-27T03:15:17;100712.50;;;6.27;84.40
4085;BME280;2057;50.858;6.572;2023-04-27T03:17:45;100708.13;;;6.13;84.97
4085;BME280;2057;50.858;6.572;2023-04-27T03:20:11;100703.72;;;6.22;85.76
4085;BME280;2057;50.858;6.572;2023-04-27T03:22:36;100718.19;;;6.13;85.27
4085;BME280;2057;50.858;6.572;2023-04-27T03:25:02;100710.88;;;6.16;85.36
4085;BME280;2057;50.858;6.572;2023-04-27T03:27:28;100706.69;;;6.17;85.41
4085;BME280;2057;50.858;6.572;2023-04-27T03:29:54;100708.34;;;6.04;84.97
4085;BME280;2057;50.858;6.572;2023-04-27T03:32:19;100705.72;;;6.03;85.64
4085;BME280;2057;50.858;6.572;2023-04-27T03:34:45;100699.25;;;6.06;85.84
4085;BME280;2057;50.858;6.572;2023-04-27T03:37:11;100697.19;;;6.01;85.85
4085;BME280;2057;50.858;6.572;2023-04-27T03:39:36;100705.06;;;5.93;86.31
4085;BME280;2057;50.858;6.572;2023-04-27T03:42:02;100709.88;;;5.90;86.44
4085;BME280;2057;50.858;6.572;2023-04-27T03:44:27;100701.31;;;5.88;87.10
4085;BME280;2057;50.858;6.572;2023-04-27T03:46:53;100709.44;;;5.84;87.16
4085;BME280;2057;50.858;6.572;2023-04-27T03:49:18;100706.56;;;5.91;86.81
4085;BME280;2057;50.858;6.572;2023-04-27T03:51:43;100708.34;;;5.80;87.32
4085;BME280;2057;50.858;6.572;2023-04-27T03:54:09;100718.28;;;5.91;87.23
4085;BME280;2057;50.858;6.572;2023-04-27T03:56:34;100717.75;;;5.83;87.02
4085;BME280;2057;50.858;6.572;2023-04-27T03:59:01;100720.81;;;5.79;86.99
4085;BME280;2057;50.858;6.572;2023-04-27T04:01:27;100727.59;;;5.80;87.40
4085;BME280;2057;50.858;6.572;2023-04-27T04:03:52;100728.25;;;5.77;87.51
4085;BME280;2057;50.858;6.572;2023-04-27T04:06:18;100722.78;;;5.71;87.10
4085;BME280;2057;50.858;6.572;2023-04-27T04:08:46;100731.97;;;5.71;87.60
4085;BME280;2057;50.858;6.572;2023-04-27T04:11:11;100726.84;;;5.69;88.00
4085;BME280;2057;50.858;6.572;2023-04-27T04:13:37;100726.06;;;5.58;88.82
4085;BME280;2057;50.858;6.572;2023-04-27T04:16:04;100734.59;;;5.60;88.79
4085;BME280;2057;50.858;6.572;2023-04-27T04:18:29;100735.56;;;5.62;88.75
4085;BME280;2057;50.858;6.572;2023-04-27T04:20:57;100740.28;;;5.58;88.47
4085;BME280;2057;50.858;6.572;2023-04-27T04:23:22;100743.78;;;5.60;89.20
4085;BME280;2057;50.858;6.572;2023-04-27T04:25:48;100741.16;;;5.58;88.91
4085;BME280;2057;50.858;6.572;2023-04-27T04:28:14;100739.50;;;5.59;88.19
4085;BME280;2057;50.858;6.572;2023-04-27T04:30:39;100744.44;;;5.57;88.84
4085;BME280;2057;50.858;6.572;2023-04-27T04:33:05;100740.28;;;5.58;89.03
4085;BME280;2057;50.858;6.572;2023-04-27T04:35:30;100746.84;;;5.56;88.69
4085;BME280;2057;50.858;6.572;2023-04-27T04:37:58;100754.41;;;5.56;89.24
4085;BME280;2057;50.858;6.572;2023-04-27T04:40:24;100755.19;;;5.55;89.21
4085;BME280;2057;50.858;6.572;2023-04-27T04:42:50;100755.19;;;5.55;89.15
4085;BME280;2057;50.858;6.572;2023-04-27T04:45:18;100749.91;;;5.52;89.06
4085;BME280;2057;50.858;6.572;2023-04-27T04:47:46;100756.03;;;5.55;89.28
4085;BME280;2057;50.858;6.572;2023-04-27T04:50:13;100754.63;;;5.59;89.43
4085;BME280;2057;50.858;6.572;2023-04-27T04:52:39;100752.09;;;5.59;88.52
4085;BME280;2057;50.858;6.572;2023-04-27T04:55:04;100743.78;;;5.48;89.03
4085;BME280;2057;50.858;6.572;2023-04-27T04:57:30;100745.13;;;5.55;89.06
4085;BME280;2057;50.858;6.572;2023-04-27T04:59:56;100741.25;;;5.48;89.70
4085;BME280;2057;50.858;6.572;2023-04-27T05:02:21;100750.25;;;5.56;89.79
4085;BME280;2057;50.858;6.572;2023-04-27T05:04:47;100753.97;;;5.61;88.97
4085;BME280;2057;50.858;6.572;2023-04-27T05:07:12;100755.81;;;5.52;89.12
4085;BME280;2057;50.858;6.572;2023-04-27T05:09:38;100750.78;;;5.64;88.69
4085;BME280;2057;50.858;6.572;2023-04-27T05:12:04;100752.44;;;5.52;89.68
4085;BME280;2057;50.858;6.572;2023-04-27T05:14:29;100762.38;;;6.08;88.04
4085;BME280;2057;50.858;6.572;2023-04-27T05:16:55;100758.84;;;6.18;86.08
4085;BME280;2057;50.858;6.572;2023-04-27T05:19:22;100764.47;;;6.02;87.80
4085;BME280;2057;50.858;6.572;2023-04-27T05:21:49;100770.34;;;5.90;87.93
4085;BME280;2057;50.858;6.572;2023-04-27T05:24:14;100774.63;;;5.91;88.11
4085;BME280;2057;50.858;6.572;2023-04-27T05:26:41;100776.91;;;5.88;88.60
4085;BME280;2057;50.858;6.572;2023-04-27T05:29:06;100779.09;;;5.84;88.96
4085;BME280;2057;50.858;6.572;2023-04-27T05:31:32;100779.31;;;5.75;88.05
4085;BME280;2057;50.858;6.572;2023-04-27T05:33:57;100780.94;;;5.86;89.44
4085;BME280;2057;50.858;6.572;2023-04-27T05:36:22;100780.66;;;5.93;89.15
4085;BME280;2057;50.858;6.572;2023-04-27T05:38:48;100775.47;;;5.92;89.15
4085;BME280;2057;50.858;6.572;2023-04-27T05:41:13;100780.50;;;5.80;87.97
4085;BME280;2057;50.858;6.572;2023-04-27T05:43:39;100778.88;;;5.80;89.86
4085;BME280;2057;50.858;6.572;2023-04-27T05:46:04;100790.25;;;5.87;89.41
4085;BME280;2057;50.858;6.572;2023-04-27T05:48:30;100788.31;;;5.83;88.23
4085;BME280;2057;50.858;6.572;2023-04-27T05:50:59;100791.59;;;5.94;88.24
4085;BME280;2057;50.858;6.572;2023-04-27T05:53:26;100791.28;;;6.01;87.55
4085;BME280;2057;50.858;6.572;2023-04-27T05:55:51;100792.06;;;6.00;87.44
4085;BME280;2057;50.858;6.572;2023-04-27T05:58:17;100802.38;;;6.03;88.62
4085;BME280;2057;50.858;6.572;2023-04-27T06:00:42;100798.00;;;6.01;88.62
4085;BME280;2057;50.858;6.572;2023-04-27T06:03:07;100794.06;;;6.16;87.93
4085;BME280;2057;50.858;6.572;2023-04-27T06:05:33;100796.66;;;6.06;88.29
4085;BME280;2057;50.858;6.572;2023-04-27T06:07:58;100790.00;;;6.18;87.86
4085;BME280;2057;50.858;6.572;2023-04-27T06:10:24;100797.47;;;6.28;86.88
4085;BME280;2057;50.858;6.572;2023-04-27T06:12:49;100800.94;;;6.19;87.06
4085;BME280;2057;50.858;6.572;2023-04-27T06:15:14;100796.44;;;6.03;87.62
4085;BME280;2057;50.858;6.572;2023-04-27T06:17:41;100796.47;;;6.15;87.29
4085;BME280;2057;50.858;6.572;2023-04-27T06:20:08;100800.50;;;6.24;87.24
4085;BME280;2057;50.858;6.572;2023-04-27T06:22:34;100803.03;;;6.24;86.45
4085;BME280;2057;50.858;6.572;2023-04-27T06:25:04;100805.31;;;6.21;88.25
4085;BME280;2057;50.858;6.572;2023-04-27T06:27:30;100806.88;;;6.31;88.33
4085;BME280;2057;50.858;6.572;2023-04-27T06:29:55;100799.66;;;6.36;89.10
4085;BME280;2057;50.858;6.572;2023-04-27T06:32:21;100801.25;;;6.47;88.23
4085;BME280;2057;50.858;6.572;2023-04-27T06:34:46;100801.72;;;6.53;88.38
4085;BME280;2057;50.858;6.572;2023-04-27T06:37:15;100808.50;;;6.54;88.69
4085;BME280;2057;50.858;6.572;2023-04-27T06:39:42;100814.31;;;6.53;88.93
4085;BME280;2057;50.858;6.572;2023-04-27T06:42:08;100801.91;;;6.56;88.91
4085;BME280;2057;50.858;6.572;2023-04-27T06:44:33;100812.53;;;6.64;87.98
4085;BME280;2057;50.858;6.572;2023-04-27T06:46:58;100798.81;;;6.72;87.87
4085;BME280;2057;50.858;6.572;2023-04-27T06:49:26;100809.47;;;6.80;87.69
4085;BME280;2057;50.858;6.572;2023-04-27T06:51:52;100803.38;;;6.90;87.59
4085;BME280;2057;50.858;6.572;2023-04-27T06:54:17;100797.13;;;6.97;86.21
4085;BME280;2057;50.858;6.572;2023-04-27T06:56:43;100803.78;;;6.96;86.84
4085;BME280;2057;50.858;6.572;2023-04-27T06:59:09;100801.81;;;7.04;86.51
4085;BME280;2057;50.858;6.572;2023-04-27T07:01:34;100797.38;;;7.13;85.89
4085;BME280;2057;50.858;6.572;2023-04-27T07:04:00;100797.44;;;7.27;85.08
4085;BME280;2057;50.858;6.572;2023-04-27T07:06:25;100796.41;;;7.36;84.89
4085;BME280;2057;50.858;6.572;2023-04-27T07:08:53;100800.41;;;7.46;84.68
4085;BME280;2057;50.858;6.572;2023-04-27T07:11:18;100803.81;;;7.47;83.66
4085;BME280;2057;50.858;6.572;2023-04-27T07:13:46;100802.94;;;7.46;83.67
4085;BME280;2057;50.858;6.572;2023-04-27T07:16:11;100804.19;;;7.40;82.34
4085;BME280;2057;50.858;6.572;2023-04-27T07:18:37;100797.69;;;7.43;83.04
4085;BME280;2057;50.858;6.572;2023-04-27T07:21:05;100797.16;;;7.61;82.32
4085;BME280;2057;50.858;6.572;2023-04-27T07:23:30;100795.38;;;7.46;81.91
4085;BME280;2057;50.858;6.572;2023-04-27T07:25:56;100793.47;;;7.69;82.46
4085;BME280;2057;50.858;6.572;2023-04-27T07:28:22;100794.84;;;7.77;81.86
4085;BME280;2057;50.858;6.572;2023-04-27T07:30:47;100789.53;;;7.86;82.63
4085;BME280;2057;50.858;6.572;2023-04-27T07:33:12;100795.44;;;7.87;82.46
4085;BME280;2057;50.858;6.572;2023-04-27T07:35:38;100804.31;;;7.93;82.35
4085;BME280;2057;50.858;6.572;2023-04-27T07:38:03;100803.31;;;7.91;83.16
4085;BME280;2057;50.858;6.572;2023-04-27T07:40:29;100794.31;;;8.08;84.15
4085;BME280;2057;50.858;6.572;2023-04-27T07:42:55;100795.19;;;8.09;83.42
4085;BME280;2057;50.858;6.572;2023-04-27T07:45:22;100790.31;;;8.25;82.26
4085;BME280;2057;50.858;6.572;2023-04-27T07:47:55;100789.34;;;8.37;82.21
4085;BME280;2057;50.858;6.572;2023-04-27T07:50:21;100775.75;;;8.48;80.19
4085;BME280;2057;50.858;6.572;2023-04-27T07:52:49;100780.97;;;8.51;78.71
4085;BME280;2057;50.858;6.572;2023-04-27T07:55:14;100780.75;;;8.75;81.34
4085;BME280;2057;50.858;6.572;2023-04-27T07:57:47;100781.41;;;8.72;76.29
4085;BME280;2057;50.858;6.572;2023-04-27T08:00:13;100785.72;;;8.73;76.02
4085;BME280;2057;50.858;6.572;2023-04-27T08:02:38;100776.28;;;8.71;75.68
4085;BME280;2057;50.858;6.572;2023-04-27T08:05:04;100783.19;;;8.73;74.62
4085;BME280;2057;50.858;6.572;2023-04-27T08:07:29;100782.53;;;9.04;76.03
4085;BME280;2057;50.858;6.572;2023-04-27T08:09:56;100780.34;;;8.82;74.63
4085;BME280;2057;50.858;6.572;2023-04-27T08:12:21;100777.25;;;9.01;73.64
4085;BME280;2057;50.858;6.572;2023-04-27T08:14:46;100777.63;;;9.07;72.88
4085;BME280;2057;50.858;6.572;2023-04-27T08:17:12;100768.72;;;9.14;72.51
4085;BME280;2057;50.858;6.572;2023-04-27T08:19:37;100775.56;;;9.15;71.07
4085;BME280;2057;50.858;6.572;2023-04-27T08:22:02;100771.63;;;9.20;70.85
4085;BME280;2057;50.858;6.572;2023-04-27T08:24:30;100771.34;;;9.16;69.82
4085;BME280;2057;50.858;6.572;2023-04-27T08:26:56;100767.25;;;9.18;68.66
4085;BME280;2057;50.858;6.572;2023-04-27T08:29:21;100766.59;;;9.50;69.39
4085;BME280;2057;50.858;6.572;2023-04-27T08:31:47;100768.19;;;9.78;72.90
4085;BME280;2057;50.858;6.572;2023-04-27T08:34:12;100763.56;;;9.71;69.86
4085;BME280;2057;50.858;6.572;2023-04-27T08:36:37;100764.25;;;9.68;67.16
4085;BME280;2057;50.858;6.572;2023-04-27T08:39:03;100768.38;;;9.66;67.44
4085;BME280;2057;50.858;6.572;2023-04-27T08:41:33;100769.41;;;9.70;67.20
4085;BME280;2057;50.858;6.572;2023-04-27T08:43:59;100768.34;;;9.36;62.98
4085;BME280;2057;50.858;6.572;2023-04-27T08:46:24;100764.41;;;9.41;63.22
4085;BME280;2057;50.858;6.572;2023-04-27T08:48:53;100767.66;;;9.84;67.72
4085;BME280;2057;50.858;6.572;2023-04-27T08:51:19;100761.84;;;10.01;63.78
4085;BME280;2057;50.858;6.572;2023-04-27T08:53:51;100766.00;;;9.99;65.45
4085;BME280;2057;50.858;6.572;2023-04-27T08:56:37;100768.72;;;10.19;65.75
4085;BME280;2057;50.858;6.572;2023-04-27T08:59:03;100771.38;;;10.20;63.59
4085;BME280;2057;50.858;6.572;2023-04-27T09:01:43;100770.06;;;10.27;61.28
4085;BME280;2057;50.858;6.572;2023-04-27T09:04:08;100764.34;;;10.31;61.67
4085;BME280;2057;50.858;6.572;2023-04-27T09:06:35;100761.81;;;10.31;61.66
4085;BME280;2057;50.858;6.572;2023-04-27T09:09:02;100749.25;;;10.49;63.02
4085;BME280;2057;50.858;6.572;2023-04-27T09:13:53;100752.97;;;10.40;63.05
4085;BME280;2057;50.858;6.572;2023-04-27T09:16:25;100745.88;;;10.65;63.21
4085;BME280;2057;50.858;6.572;2023-04-27T09:18:52;100744.59;;;10.74;61.33
4085;BME280;2057;50.858;6.572;2023-04-27T09:21:30;100744.59;;;10.74;60.13
4085;BME280;2057;50.858;6.572;2023-04-27T09:23:56;100742.72;;;10.86;60.70
4085;BME280;2057;50.858;6.572;2023-04-27T09:26:24;100750.34;;;11.03;61.72
4085;BME280;2057;50.858;6.572;2023-04-27T09:28:51;100746.03;;;11.18;62.64
4085;BME280;2057;50.858;6.572;2023-04-27T09:31:17;100742.69;;;11.19;61.05
4085;BME280;2057;50.858;6.572;2023-04-27T09:33:43;100748.41;;;10.98;60.75
4085;BME280;2057;50.858;6.572;2023-04-27T09:36:10;100742.72;;;10.86;59.19
4085;BME280;2057;50.858;6.572;2023-04-27T09:38:36;100740.41;;;11.07;60.05
4085;BME280;2057;50.858;6.572;2023-04-27T09:41:01;100727.38;;;11.18;59.22
4085;BME280;2057;50.858;6.572;2023-04-27T09:43:28;100739.16;;;10.99;57.47
4085;BME280;2057;50.858;6.572;2023-04-27T09:45:55;100733.38;;;11.20;59.17
4085;BME280;2057;50.858;6.572;2023-04-27T09:48:22;100733.19;;;11.50;60.42
4085;BME280;2057;50.858;6.572;2023-04-27T09:50:48;100731.94;;;11.59;58.20
4085;BME280;2057;50.858;6.572;2023-04-27T09:53:16;100732.56;;;11.72;58.54
4085;BME280;2057;50.858;6.572;2023-04-27T09:55:53;100736.91;;;11.92;58.32
4085;BME280;2057;50.858;6.572;2023-04-27T09:58:34;100726.00;;;11.77;57.00
4085;BME280;2057;50.858;6.572;2023-04-27T10:09:19;100721.81;;;11.96;57.07
4085;BME280;2057;50.858;6.572;2023-04-27T10:11:48;100722.84;;;12.17;57.67
4085;BME280;2057;50.858;6.572;2023-04-27T10:14:31;100730.09;;;12.28;57.73
4085;BME280;2057;50.858;6.572;2023-04-27T10:16:57;100726.69;;;12.27;56.41
4085;BME280;2057;50.858;6.572;2023-04-27T10:19:24;100726.97;;;11.79;53.11
4085;BME280;2057;50.858;6.572;2023-04-27T10:21:59;100708.47;;;12.00;55.42
4085;BME280;2057;50.858;6.572;2023-04-27T10:24:48;100704.56;;;12.26;54.06
4085;BME280;2057;50.858;6.572;2023-04-27T10:27:16;100700.50;;;12.49;57.39
4085;BME280;2057;50.858;6.572;2023-04-27T10:29:46;100697.66;;;11.87;52.40
4085;BME280;2057;50.858;6.572;2023-04-27T10:34:45;100699.53;;;12.28;55.58
4085;BME280;2057;50.858;6.572;2023-04-27T10:37:14;100688.81;;;12.15;55.20
4085;BME280;2057;50.858;6.572;2023-04-27T10:39:41;100687.50;;;12.05;54.59
4085;BME280;2057;50.858;6.572;2023-04-27T10:42:07;100678.38;;;11.92;53.86
4085;BME280;2057;50.858;6.572;2023-04-27T10:44:33;100681.34;;;12.58;57.08
4085;BME280;2057;50.858;6.572;2023-04-27T10:47:15;100683.56;;;12.69;56.35
4085;BME280;2057;50.858;6.572;2023-04-27T10:49:41;100686.41;;;12.97;56.31
4085;BME280;2057;50.858;6.572;2023-04-27T10:52:06;100697.13;;;13.09;55.29
4085;BME280;2057;50.858;6.572;2023-04-27T10:54:32;100695.19;;;13.03;55.07
4085;BME280;2057;50.858;6.572;2023-04-27T10:57:08;100694.22;;;13.21;56.86
4085;BME280;2057;50.858;6.572;2023-04-27T10:59:45;100690.34;;;13.51;52.94
4085;BME280;2057;50.858;6.572;2023-04-27T11:02:13;100696.28;;;12.89;50.60
4085;BME280;2057;50.858;6.572;2023-04-27T11:04:39;100681.41;;;12.98;54.51
4085;BME280;2057;50.858;6.572;2023-04-27T11:07:06;100688.94;;;13.16;52.48
4085;BME280;2057;50.858;6.572;2023-04-27T11:09:38;100688.41;;;12.83;53.54
4085;BME280;2057;50.858;6.572;2023-04-27T11:12:07;100674.50;;;12.37;52.84
4085;BME280;2057;50.858;6.572;2023-04-27T11:14:35;100676.78;;;12.31;52.93
4085;BME280;2057;50.858;6.572;2023-04-27T11:17:02;100673.81;;;12.80;53.97
4085;BME280;2057;50.858;6.572;2023-04-27T11:19:28;100678.53;;;13.12;53.72
4085;BME280;2057;50.858;6.572;2023-04-27T11:22:02;100673.41;;;13.31;50.19
4085;BME280;2057;50.858;6.572;2023-04-27T11:24:27;100665.69;;;13.09;50.32
4085;BME280;2057;50.858;6.572;2023-04-27T11:26:53;100665.63;;;13.49;52.75
4085;BME280;2057;50.858;6.572;2023-04-27T11:29:18;100659.44;;;13.64;53.35
4085;BME280;2057;50.858;6.572;2023-04-27T11:31:48;100660.59;;;13.95;52.76
4085;BME280;2057;50.858;6.572;2023-04-27T11:34:19;100649.03;;;14.05;50.26
4085;BME280;2057;50.858;6.572;2023-04-27T11:36:58;100651.16;;;13.92;50.47
4085;BME280;2057;50.858;6.572;2023-04-27T11:39:32;100652.69;;;13.66;50.33
4085;BME280;2057;50.858;6.572;2023-04-27T11:42:16;100643.03;;;13.59;49.72
4085;BME280;2057;50.858;6.572;2023-04-27T11:44:48;100643.84;;;13.58;50.96
4085;BME280;2057;50.858;6.572;2023-04-27T11:47:17;100630.78;;;14.17;53.67
4085;BME280;2057;50.858;6.572;2023-04-27T11:50:04;100633.16;;;14.36;50.33
4085;BME280;2057;50.858;6.572;2023-04-27T11:52:31;100633.03;;;14.57;50.91
4085;BME280;2057;50.858;6.572;2023-04-27T11:54:58;100630.13;;;14.47;50.31
4085;BME280;2057;50.858;6.572;2023-04-27T11:57:29;100631.19;;;14.29;49.81
4085;BME280;2057;50.858;6.572;2023-04-27T11:59:56;100626.00;;;14.50;52.37
4085;BME280;2057;50.858;6.572;2023-04-27T12:02:24;100611.91;;;14.62;50.61
4085;BME280;2057;50.858;6.572;2023-04-27T12:04:50;100618.47;;;14.78;50.08
4085;BME280;2057;50.858;6.572;2023-04-27T12:07:16;100615.78;;;14.74;49.68
4085;BME280;2057;50.858;6.572;2023-04-27T12:09:41;100616.09;;;14.84;49.73
4085;BME280;2057;50.858;6.572;2023-04-27T12:12:08;100618.81;;;14.64;48.16
4085;BME280;2057;50.858;6.572;2023-04-27T12:14:33;100613.69;;;14.40;47.75
4085;BME280;2057;50.858;6.572;2023-04-27T12:16:59;100612.72;;;14.61;49.29
4085;BME280;2057;50.858;6.572;2023-04-27T12:19:24;100613.03;;;14.94;52.09
4085;BME280;2057;50.858;6.572;2023-04-27T12:21:51;100612.88;;;14.89;50.74
4085;BME280;2057;50.858;6.572;2023-04-27T12:24:17;100618.03;;;14.91;49.97
4085;BME280;2057;50.858;6.572;2023-04-27T12:26:42;100613.75;;;15.17;49.46
4085;BME280;2057;50.858;6.572;2023-04-27T12:29:08;100608.13;;;15.00;50.56
4085;BME280;2057;50.858;6.572;2023-04-27T12:31:33;100603.94;;;15.30;51.04
4085;BME280;2057;50.858;6.572;2023-04-27T12:33:58;100604.84;;;15.59;49.03
4085;BME280;2057;50.858;6.572;2023-04-27T12:36:26;100604.94;;;15.35;48.05
4085;BME280;2057;50.858;6.572;2023-04-27T12:38:58;100598.06;;;15.61;49.84
4085;BME280;2057;50.858;6.572;2023-04-27T12:41:23;100589.25;;;15.51;47.41
4085;BME280;2057;50.858;6.572;2023-04-27T12:43:49;100596.34;;;15.60;49.84
4085;BME280;2057;50.858;6.572;2023-04-27T12:46:14;100600.38;;;15.81;48.25
4085;BME280;2057;50.858;6.572;2023-04-27T12:48:40;100601.34;;;15.28;46.78
4085;BME280;2057;50.858;6.572;2023-04-27T12:51:05;100596.66;;;15.42;46.41
4085;BME280;2057;50.858;6.572;2023-04-27T12:53:31;100597.56;;;15.73;46.32
4085;BME280;2057;50.858;6.572;2023-04-27T12:55:56;100592.22;;;15.36;45.13
4085;BME280;2057;50.858;6.572;2023-04-27T12:58:24;100585.03;;;15.53;46.76
4085;BME280;2057;50.858;6.572;2023-04-27T13:00:54;100590.56;;;15.95;46.84
4085;BME280;2057;50.858;6.572;2023-04-27T13:03:22;100591.63;;;16.34;47.07
4085;BME280;2057;50.858;6.572;2023-04-27T13:05:47;100593.22;;;16.62;44.53
4085;BME280;2057;50.858;6.572;2023-04-27T13:08:12;100599.13;;;16.27;43.97
4085;BME280;2057;50.858;6.572;2023-04-27T13:10:38;100600.72;;;14.82;46.06
4085;BME280;2057;50.858;6.572;2023-04-27T13:13:04;100600.09;;;15.15;46.50
4085;BME280;2057;50.858;6.572;2023-04-27T13:15:31;100591.91;;;15.00;47.19
4085;BME280;2057;50.858;6.572;2023-04-27T13:17:56;100584.25;;;15.83;46.52
4085;BME280;2057;50.858;6.572;2023-04-27T13:20:23;100579.56;;;15.14;46.30
4085;BME280;2057;50.858;6.572;2023-04-27T13:22:50;100581.72;;;15.85;47.75
4085;BME280;2057;50.858;6.572;2023-04-27T13:25:16;100575.38;;;16.33;47.10
4085;BME280;2057;50.858;6.572;2023-04-27T13:27:41;100579.13;;;16.46;46.00